createdAt,value
2023-01-09T00:01:49.272Z,92.40
2023-01-09T00:04:35.375Z,92.20
2023-01-09T00:07:21.444Z,92.50
2023-01-09T00:10:08.192Z,92.70
2023-01-09T00:12:54.647Z,92.90
2023-01-09T00:15:41.420Z,93.30
2023-01-09T00:18:27.540Z,93.70
2023-01-09T00:21:14.375Z,93.70
2023-01-09T00:24:00.126Z,93.60
2023-01-09T00:26:45.952Z,93.70
2023-01-09T00:29:32.129Z,93.50
2023-01-09T00:32:18.127Z,93.30
2023-01-09T00:35:04.562Z,93.20
2023-01-09T00:37:50.698Z,93.40
2023-01-09T00:40:36.679Z,93.30
2023-01-09T00:43:24.131Z,93.10
2023-01-09T00:46:10.396Z,93.20
2023-01-09T00:48:56.143Z,93.20
2023-01-09T00:51:42.416Z,92.90
2023-01-09T00:54:28.905Z,92.90
2023-01-09T00:57:15.008Z,93.10
2023-01-09T01:00:01.383Z,93.00
2023-01-09T01:02:47.223Z,93.20
2023-01-09T01:05:51.906Z,93.30
2023-01-09T01:08:37.617Z,93.50
2023-01-09T01:11:23.740Z,93.60
2023-01-09T01:14:09.645Z,93.60
2023-01-09T01:16:55.450Z,93.60
2023-01-09T01:19:41.397Z,93.60
2023-01-09T01:22:27.470Z,93.20
2023-01-09T01:25:14.324Z,93.30
2023-01-09T01:28:00.244Z,93.50
2023-01-09T01:30:46.450Z,93.40
2023-01-09T01:33:33.030Z,93.60
2023-01-09T01:36:18.969Z,93.30
2023-01-09T01:39:05.112Z,93.30
2023-01-09T01:41:51.283Z,93.50
2023-01-09T01:44:56.033Z,93.60
2023-01-09T01:47:51.246Z,93.40
2023-01-09T01:50:45.791Z,93.60
2023-01-09T01:53:37.234Z,93.80
2023-01-09T01:56:25.240Z,94.20
2023-01-09T01:59:14.255Z,94.20
2023-01-09T02:02:01.283Z,94.30
2023-01-09T02:04:47.622Z,94.10
2023-01-09T02:07:33.615Z,93.90
2023-01-09T02:10:23.479Z,93.90
2023-01-09T02:13:10.173Z,93.50
2023-01-09T02:15:56.153Z,93.60
2023-01-09T02:18:54.591Z,93.70
2023-01-09T02:21:59.283Z,93.70
2023-01-09T02:24:55.822Z,93.90
2023-01-09T02:27:58.458Z,93.80
2023-01-09T02:30:47.431Z,93.50
2023-01-09T02:33:36.211Z,93.40
2023-01-09T02:36:28.322Z,93.40
2023-01-09T02:39:26.732Z,93.60
2023-01-09T02:42:12.699Z,93.70
2023-01-09T02:44:58.645Z,94.00
2023-01-09T02:47:46.114Z,93.90
2023-01-09T02:50:31.890Z,93.80
2023-01-09T02:53:23.922Z,94.00
2023-01-09T02:56:16.482Z,94.40
2023-01-09T02:59:12.975Z,94.50
2023-01-09T03:02:08.299Z,94.50
2023-01-09T03:05:03.935Z,94.50
2023-01-09T03:08:08.944Z,94.50
2023-01-09T03:10:58.714Z,94.40
2023-01-09T03:13:53.557Z,94.40
2023-01-09T03:16:39.453Z,94.40
2023-01-09T03:19:27.150Z,94.50
2023-01-09T03:22:13.166Z,94.40
2023-01-09T03:25:00.002Z,94.30
2023-01-09T03:27:46.109Z,94.30
2023-01-09T03:30:32.991Z,94.30
2023-01-09T03:33:19.423Z,94.40
2023-01-09T03:36:05.600Z,94.30
2023-01-09T03:38:51.682Z,94.30
2023-01-09T03:41:37.675Z,94.10
2023-01-09T03:44:23.795Z,94.00
2023-01-09T03:47:09.704Z,94.00
2023-01-09T03:49:55.671Z,94.10
2023-01-09T03:52:41.734Z,94.00
2023-01-09T03:55:28.015Z,94.10
2023-01-09T03:58:14.678Z,94.10
2023-01-09T04:01:01.642Z,94.20
2023-01-09T04:03:47.595Z,94.20
2023-01-09T04:06:33.474Z,94.30
2023-01-09T04:09:19.555Z,94.50
2023-01-09T04:12:05.680Z,94.40
2023-01-09T04:14:51.956Z,94.40
2023-01-09T04:17:38.026Z,94.40
2023-01-09T04:20:24.131Z,94.60
2023-01-09T04:23:10.309Z,94.60
2023-01-09T04:25:56.239Z,94.70
2023-01-09T04:28:42.181Z,94.90
2023-01-09T04:31:28.421Z,95.00
2023-01-09T04:34:14.670Z,95.10
2023-01-09T04:37:00.651Z,95.10
2023-01-09T04:39:46.726Z,95.10
2023-01-09T04:42:32.973Z,95.20
2023-01-09T04:45:18.655Z,95.20
2023-01-09T04:48:04.875Z,95.30
2023-01-09T04:50:50.601Z,95.20
2023-01-09T04:53:36.641Z,95.20
2023-01-09T04:56:22.663Z,95.30
2023-01-09T04:59:09.104Z,95.20
2023-01-09T05:01:56.220Z,95.30
2023-01-09T05:04:42.297Z,95.30
2023-01-09T05:07:28.266Z,95.30
2023-01-09T05:10:14.267Z,95.30
2023-01-09T05:13:00.287Z,95.20
2023-01-09T05:15:46.409Z,95.10
2023-01-09T05:18:32.603Z,94.90
2023-01-09T05:21:18.590Z,94.80
2023-01-09T05:24:04.810Z,94.60
2023-01-09T05:26:50.627Z,94.50
2023-01-09T05:29:38.817Z,94.50
2023-01-09T05:32:24.601Z,94.30
2023-01-09T05:35:10.636Z,94.30
2023-01-09T05:37:56.741Z,94.50
2023-01-09T05:40:42.797Z,94.40
2023-01-09T05:43:28.794Z,94.20
2023-01-09T05:46:14.680Z,94.20
2023-01-09T05:49:00.699Z,93.80
2023-01-09T05:51:46.735Z,93.80
2023-01-09T05:54:32.940Z,93.80
2023-01-09T05:57:19.288Z,93.70
2023-01-09T06:00:05.547Z,93.50
2023-01-09T06:02:52.995Z,93.60
2023-01-09T06:05:39.071Z,93.50
2023-01-09T06:08:25.132Z,93.20
2023-01-09T06:11:11.136Z,93.40
2023-01-09T06:13:57.187Z,93.00
2023-01-09T06:16:43.174Z,93.00
2023-01-09T06:19:29.208Z,93.10
2023-01-09T06:22:15.221Z,92.90
2023-01-09T06:25:01.277Z,92.60
2023-01-09T06:27:47.327Z,91.90
2023-01-09T06:30:34.083Z,91.60
2023-01-09T06:33:20.259Z,91.20
2023-01-09T06:36:06.392Z,91.00
2023-01-09T06:38:52.089Z,91.20
2023-01-09T06:41:38.350Z,91.20
2023-01-09T06:44:24.613Z,91.00
2023-01-09T06:47:10.646Z,91.30
2023-01-09T06:49:58.171Z,91.60
2023-01-09T06:52:44.093Z,91.50
2023-01-09T06:55:30.185Z,91.40
2023-01-09T06:58:16.211Z,91.60
2023-01-09T07:01:02.415Z,91.80
2023-01-09T07:03:48.847Z,91.70
2023-01-09T07:06:34.883Z,91.90
2023-01-09T07:09:20.948Z,91.80
2023-01-09T07:12:07.448Z,92.10
2023-01-09T07:14:53.187Z,92.10
2023-01-09T07:17:39.447Z,92.10
2023-01-09T07:20:25.429Z,91.90
2023-01-09T07:23:12.939Z,91.80
2023-01-09T07:25:59.439Z,91.70
2023-01-09T07:28:45.697Z,91.90
2023-01-09T07:31:32.611Z,91.90
2023-01-09T07:34:18.477Z,91.90
2023-01-09T07:37:04.168Z,92.00
2023-01-09T07:39:50.066Z,92.40
2023-01-09T07:42:36.184Z,93.10
2023-01-09T07:45:22.071Z,93.40
2023-01-09T07:48:08.158Z,93.30
2023-01-09T07:50:54.255Z,93.40
2023-01-09T07:53:40.237Z,93.10
2023-01-09T07:56:26.427Z,93.30
2023-01-09T07:59:12.146Z,93.50
2023-01-09T08:01:58.514Z,93.20
2023-01-09T08:04:44.702Z,93.50
2023-01-09T08:07:30.708Z,93.30
2023-01-09T08:10:19.654Z,93.60
2023-01-09T08:13:05.345Z,93.90
2023-01-09T08:15:51.382Z,93.90
2023-01-09T08:18:37.438Z,94.20
2023-01-09T08:21:23.551Z,94.40
2023-01-09T08:24:09.689Z,94.50
2023-01-09T08:26:55.470Z,94.60
2023-01-09T08:29:41.290Z,94.80
2023-01-09T08:32:27.436Z,95.10
2023-01-09T08:35:13.734Z,95.10
2023-01-09T08:37:59.706Z,95.30
2023-01-09T08:40:47.008Z,95.00
2023-01-09T08:43:51.463Z,95.10
2023-01-09T08:46:56.327Z,95.10
2023-01-09T08:49:42.104Z,95.00
2023-01-09T08:52:30.636Z,95.20
2023-01-09T08:55:16.627Z,95.00
2023-01-09T08:58:02.545Z,94.70
2023-01-09T09:00:48.474Z,94.50
2023-01-09T09:03:34.592Z,94.60
2023-01-09T09:06:20.626Z,94.30
2023-01-09T09:09:06.944Z,94.20
2023-01-09T09:11:53.094Z,93.40
2023-01-09T09:14:57.747Z,93.20
2023-01-09T09:17:44.491Z,92.80
2023-01-09T09:20:37.925Z,91.50
2023-01-09T09:23:23.912Z,91.30
2023-01-09T09:26:10.069Z,90.70
2023-01-09T09:28:55.844Z,89.50
2023-01-09T09:31:41.816Z,88.80
2023-01-09T09:34:27.661Z,88.60
2023-01-09T09:37:13.893Z,87.90
2023-01-09T09:40:09.730Z,87.20
2023-01-09T09:43:28.243Z,87.50
2023-01-09T09:46:17.018Z,86.70
2023-01-09T09:49:07.184Z,85.70
2023-01-09T09:51:56.351Z,86.90
2023-01-09T09:54:44.682Z,87.00
2023-01-09T09:57:35.885Z,87.00
2023-01-09T10:00:23.050Z,86.20
2023-01-09T10:03:33.873Z,86.80
2023-01-09T10:06:26.669Z,86.70
2023-01-09T10:09:26.070Z,86.50
2023-01-09T10:12:23.967Z,87.10
2023-01-09T10:15:30.323Z,87.10
2023-01-09T10:18:33.516Z,87.40
2023-01-09T10:21:38.840Z,87.30
2023-01-09T10:24:34.561Z,87.60
2023-01-09T10:27:43.548Z,86.70
2023-01-09T10:30:37.572Z,87.50
2023-01-09T10:33:23.380Z,86.70
2023-01-09T10:36:31.242Z,85.70
2023-01-09T10:39:37.403Z,86.30
2023-01-09T10:42:31.917Z,86.80
2023-01-09T10:45:20.045Z,85.50
2023-01-09T10:48:23.304Z,85.50
2023-01-09T10:51:20.349Z,84.60
2023-01-09T10:54:12.650Z,84.60
2023-01-09T10:57:04.904Z,84.40
2023-01-09T10:59:50.606Z,84.50
2023-01-09T11:02:36.837Z,84.40
2023-01-09T11:05:29.606Z,84.00
2023-01-09T11:08:28.240Z,84.50
2023-01-09T11:11:30.587Z,83.20
2023-01-09T11:14:33.037Z,83.50
2023-01-09T11:17:20.486Z,83.60
2023-01-09T11:20:13.864Z,82.80
2023-01-09T11:23:00.301Z,83.50
2023-01-09T11:25:51.925Z,83.20
2023-01-09T11:28:38.052Z,82.80
2023-01-09T11:31:25.034Z,82.80
2023-01-09T11:34:44.985Z,82.80
2023-01-09T11:37:31.768Z,82.30
2023-01-09T11:40:20.240Z,82.40
2023-01-09T11:43:18.476Z,82.10
2023-01-09T11:46:08.959Z,82.20
2023-01-09T11:48:58.962Z,82.00
2023-01-09T11:51:45.107Z,82.00
2023-01-09T11:54:32.733Z,80.90
2023-01-09T11:57:19.054Z,80.80
2023-01-09T12:00:20.166Z,80.80
2023-01-09T12:03:19.997Z,80.50
2023-01-09T12:06:14.551Z,80.90
2023-01-09T12:09:02.288Z,80.80
2023-01-09T12:11:55.447Z,80.20
2023-01-09T12:14:41.342Z,79.00
2023-01-09T12:17:27.409Z,79.40
2023-01-09T12:20:17.687Z,79.30
2023-01-09T12:23:06.506Z,79.70
2023-01-09T12:25:58.661Z,79.90
2023-01-09T12:28:53.754Z,79.20
2023-01-09T12:31:46.954Z,80.00
2023-01-09T12:34:51.716Z,80.10
2023-01-09T12:37:40.906Z,79.80
2023-01-09T12:40:39.370Z,78.90
2023-01-09T12:43:26.227Z,78.60
2023-01-09T12:46:12.249Z,79.20
2023-01-09T12:49:04.315Z,79.40
2023-01-09T12:52:25.837Z,80.20
2023-01-09T12:55:17.624Z,79.50
2023-01-09T12:58:07.751Z,79.50
2023-01-09T13:00:54.357Z,79.60
2023-01-09T13:03:41.236Z,79.40
2023-01-09T13:06:28.854Z,79.60
2023-01-09T13:09:32.992Z,79.40
2023-01-09T13:12:21.661Z,78.70
2023-01-09T13:15:19.441Z,79.30
2023-01-09T13:18:13.935Z,78.90
2023-01-09T13:21:01.194Z,78.70
2023-01-09T13:24:05.940Z,79.30
2023-01-09T13:27:21.229Z,79.80
2023-01-09T13:30:17.044Z,79.30
2023-01-09T13:33:09.192Z,79.30
2023-01-09T13:35:57.403Z,79.50
2023-01-09T13:38:48.982Z,79.00
2023-01-09T13:42:04.467Z,79.60
2023-01-09T13:44:52.344Z,79.90
2023-01-09T13:47:38.637Z,80.10
2023-01-09T13:50:26.467Z,80.00
2023-01-09T13:53:18.299Z,80.20
2023-01-09T13:56:05.906Z,79.20
2023-01-09T13:58:54.694Z,78.80
2023-01-09T14:01:41.543Z,78.80
2023-01-09T14:04:27.976Z,78.90
2023-01-09T14:07:20.072Z,79.50
2023-01-09T14:10:08.065Z,79.20
2023-01-09T14:12:55.034Z,79.60
2023-01-09T14:15:41.748Z,79.30
2023-01-09T14:18:32.834Z,79.50
2023-01-09T14:21:18.991Z,79.90
2023-01-09T14:24:07.210Z,79.60
2023-01-09T14:26:57.105Z,80.20
2023-01-09T14:29:44.638Z,79.80
2023-01-09T14:32:33.925Z,79.60
2023-01-09T14:35:24.317Z,80.30
2023-01-09T14:38:17.472Z,80.20
2023-01-09T14:41:18.299Z,80.60
2023-01-09T14:44:06.593Z,80.40
2023-01-09T14:46:53.450Z,80.10
2023-01-09T14:49:41.797Z,80.80
2023-01-09T14:52:27.574Z,80.60
2023-01-09T14:55:26.868Z,80.20
2023-01-09T14:58:26.731Z,80.40
2023-01-09T15:01:16.927Z,80.80
2023-01-09T15:04:05.547Z,80.80
2023-01-09T15:06:51.931Z,80.70
2023-01-09T15:09:37.965Z,80.90
2023-01-09T15:12:24.413Z,80.40
2023-01-09T15:15:12.590Z,80.30
2023-01-09T15:18:03.190Z,81.20
2023-01-09T15:20:54.542Z,81.80
2023-01-09T15:23:40.213Z,82.40
2023-01-09T15:26:27.806Z,82.60
2023-01-09T15:29:17.781Z,82.80
2023-01-09T15:32:07.307Z,83.30
2023-01-09T15:34:54.712Z,83.60
2023-01-09T15:37:40.862Z,83.70
2023-01-09T15:40:32.160Z,83.50
2023-01-09T15:43:18.596Z,83.90
2023-01-09T15:46:04.341Z,83.80
2023-01-09T15:48:53.923Z,84.10
2023-01-09T15:51:42.007Z,84.30
2023-01-09T15:54:30.206Z,84.20
2023-01-09T15:57:25.180Z,84.60
2023-01-09T16:00:32.156Z,84.60
2023-01-09T16:03:20.204Z,84.10
2023-01-09T16:06:29.623Z,84.00
2023-01-09T16:09:37.822Z,83.20
2023-01-09T16:12:25.374Z,83.90
2023-01-09T16:15:15.677Z,83.70
2023-01-09T16:18:13.827Z,83.60
2023-01-09T16:21:03.113Z,84.40
2023-01-09T16:23:53.375Z,84.30
2023-01-09T16:26:39.546Z,84.30
2023-01-09T16:29:49.951Z,84.60
2023-01-09T16:32:45.427Z,84.80
2023-01-09T16:35:31.432Z,84.60
2023-01-09T16:38:17.868Z,85.00
2023-01-09T16:41:38.413Z,85.00
2023-01-09T16:44:26.077Z,85.60
2023-01-09T16:47:14.257Z,85.90
2023-01-09T16:50:00.157Z,86.20
2023-01-09T16:52:47.433Z,86.80
2023-01-09T16:55:33.573Z,87.10
2023-01-09T16:58:23.716Z,87.40
2023-01-09T17:01:10.745Z,87.50
2023-01-09T17:03:58.447Z,87.60
2023-01-09T17:06:45.882Z,88.00
2023-01-09T17:09:32.700Z,87.90
2023-01-09T17:12:20.215Z,88.00
2023-01-09T17:15:06.601Z,88.00
2023-01-09T17:17:52.575Z,88.40
2023-01-09T17:20:39.895Z,88.10
2023-01-09T17:23:25.909Z,87.90
2023-01-09T17:26:40.093Z,87.80
2023-01-09T17:29:25.957Z,87.70
2023-01-09T17:32:20.751Z,88.30
2023-01-09T17:35:07.249Z,88.20
2023-01-09T17:37:53.105Z,88.00
2023-01-09T17:40:39.200Z,88.30
2023-01-09T17:43:25.286Z,88.00
2023-01-09T17:46:14.774Z,88.30
2023-01-09T17:49:01.586Z,88.20
2023-01-09T17:51:47.420Z,88.20
2023-01-09T17:54:33.331Z,88.20
2023-01-09T17:57:19.414Z,88.30
2023-01-09T18:00:06.399Z,88.30
2023-01-09T18:02:52.918Z,88.60
2023-01-09T18:05:38.865Z,88.70
2023-01-09T18:08:24.822Z,88.80
2023-01-09T18:11:14.901Z,88.60
2023-01-09T18:14:00.670Z,88.70
2023-01-09T18:16:46.818Z,88.90
2023-01-09T18:19:33.405Z,89.10
2023-01-09T18:22:19.112Z,89.10
2023-01-09T18:25:05.390Z,89.00
2023-01-09T18:27:51.734Z,88.90
2023-01-09T18:30:37.701Z,89.10
2023-01-09T18:33:24.064Z,89.00
2023-01-09T18:36:10.937Z,89.40
2023-01-09T18:39:01.415Z,89.40
2023-01-09T18:41:47.454Z,89.40
2023-01-09T18:44:33.614Z,88.90
2023-01-09T18:47:19.419Z,89.00
2023-01-09T18:50:05.717Z,89.30
2023-01-09T18:52:52.015Z,89.30
2023-01-09T18:55:41.367Z,89.70
2023-01-09T18:58:27.970Z,89.80
2023-01-09T19:01:14.972Z,90.00
2023-01-09T19:04:01.187Z,90.10
2023-01-09T19:06:47.206Z,90.20
2023-01-09T19:09:33.279Z,90.20
2023-01-09T19:12:19.072Z,90.30
2023-01-09T19:15:10.870Z,90.30
2023-01-09T19:17:57.369Z,90.40
2023-01-09T19:20:43.351Z,90.40
2023-01-09T19:23:29.372Z,90.50
2023-01-09T19:26:17.104Z,90.40
2023-01-09T19:29:03.111Z,90.50
2023-01-09T19:31:49.528Z,90.40
2023-01-09T19:34:35.580Z,90.50
2023-01-09T19:37:21.629Z,90.40
2023-01-09T19:40:07.551Z,90.30
2023-01-09T19:42:54.499Z,90.40
2023-01-09T19:45:40.606Z,90.50
2023-01-09T19:48:27.573Z,90.60
2023-01-09T19:51:14.540Z,90.80
2023-01-09T19:54:03.225Z,90.70
2023-01-09T19:56:49.226Z,90.90
2023-01-09T19:59:36.212Z,90.90
2023-01-09T20:05:13.088Z,90.90
2023-01-09T20:07:59.021Z,90.90
2023-01-09T20:10:45.077Z,91.00
2023-01-09T20:13:31.022Z,91.10
2023-01-09T20:16:19.914Z,91.40
2023-01-09T20:19:08.498Z,91.50
2023-01-09T20:21:54.322Z,91.50
2023-01-09T20:24:40.405Z,91.60
2023-01-09T20:27:26.552Z,91.70
2023-01-09T20:30:12.803Z,91.70
2023-01-09T20:33:00.160Z,91.70
2023-01-09T20:35:46.077Z,91.60
2023-01-09T20:38:32.141Z,91.60
2023-01-09T20:41:24.232Z,91.60
2023-01-09T20:44:11.960Z,91.60
2023-01-09T20:46:57.974Z,91.50
2023-01-09T20:49:43.896Z,91.50
2023-01-09T20:52:29.902Z,91.50
2023-01-09T20:55:16.032Z,91.40
2023-01-09T20:58:02.135Z,91.40
2023-01-09T21:00:48.337Z,91.40
2023-01-09T21:03:34.560Z,91.60
2023-01-09T21:06:21.511Z,91.70
2023-01-09T21:09:07.373Z,91.80
2023-01-09T21:11:53.442Z,91.70
2023-01-09T21:14:39.495Z,91.70
2023-01-09T21:17:25.591Z,91.80
2023-01-09T21:20:13.137Z,92.20
2023-01-09T21:22:58.790Z,92.60
2023-01-09T21:25:45.284Z,93.00
2023-01-09T21:28:31.738Z,92.90
2023-01-09T21:31:19.472Z,93.00
2023-01-09T21:34:06.848Z,93.00
2023-01-09T21:36:52.720Z,92.90
2023-01-09T21:39:38.746Z,92.90
2023-01-09T21:42:43.418Z,93.00
2023-01-09T21:45:47.971Z,93.00
2023-01-09T21:48:33.495Z,93.20
2023-01-09T21:51:19.637Z,93.30
2023-01-09T21:54:05.743Z,93.40
2023-01-09T21:56:52.270Z,93.40
2023-01-09T21:59:38.325Z,93.40
2023-01-09T22:02:24.522Z,93.30
2023-01-09T22:05:10.599Z,93.50
2023-01-09T22:07:56.480Z,93.70
2023-01-09T22:10:42.173Z,93.70
2023-01-09T22:13:28.575Z,93.90
2023-01-09T22:16:14.415Z,94.00
2023-01-09T22:19:00.531Z,94.00
2023-01-09T22:21:46.716Z,94.10
2023-01-09T22:24:32.700Z,93.90
2023-01-09T22:27:19.028Z,94.00
2023-01-09T22:30:05.161Z,93.90
2023-01-09T22:32:51.201Z,93.90
2023-01-09T22:35:41.009Z,93.90
2023-01-09T22:38:26.642Z,93.90
2023-01-09T22:41:13.142Z,93.90
2023-01-09T22:43:59.184Z,93.90
2023-01-09T22:46:45.317Z,93.90
2023-01-09T22:49:41.104Z,93.90
2023-01-09T22:52:37.270Z,93.90
2023-01-09T22:55:23.148Z,93.80
2023-01-09T22:58:09.233Z,93.90
2023-01-09T23:00:55.255Z,94.10
2023-01-09T23:03:41.387Z,94.00
2023-01-09T23:06:27.387Z,94.20
2023-01-09T23:09:13.411Z,94.00
2023-01-09T23:12:02.284Z,94.10
2023-01-09T23:14:48.338Z,94.00
2023-01-09T23:17:34.660Z,93.90
2023-01-09T23:20:20.440Z,94.00
2023-01-09T23:23:07.053Z,94.00
2023-01-09T23:25:54.161Z,94.10
2023-01-09T23:28:40.381Z,94.10
2023-01-09T23:31:26.521Z,94.30
2023-01-09T23:34:17.092Z,94.40
2023-01-09T23:37:05.883Z,94.80
2023-01-09T23:39:52.125Z,95.00
2023-01-09T23:42:57.045Z,95.40
2023-01-09T23:45:44.234Z,95.50
2023-01-09T23:48:30.287Z,95.70
2023-01-09T23:51:16.149Z,95.70
2023-01-09T23:54:02.146Z,96.10
2023-01-09T23:56:48.233Z,96.20
2023-01-09T23:59:34.218Z,96.40
